createdAt,value
2017-09-04T00:01:35.183Z,8.00
2017-09-04T00:04:03.555Z,14.00
2017-09-04T00:06:31.957Z,10.40
2017-09-04T00:09:01.355Z,8.03
2017-09-04T00:11:29.749Z,7.40
2017-09-04T00:13:58.132Z,8.23
2017-09-04T00:16:27.550Z,6.87
2017-09-04T00:18:55.912Z,7.17
2017-09-04T00:21:24.368Z,6.53
2017-09-04T00:23:52.851Z,10.27
2017-09-04T00:26:21.325Z,8.80
2017-09-04T00:28:49.713Z,7.13
2017-09-04T00:31:18.524Z,8.87
2017-09-04T00:33:46.921Z,7.30
2017-09-04T00:36:15.288Z,6.03
2017-09-04T00:38:43.657Z,11.03
2017-09-04T00:41:12.100Z,6.63
2017-09-04T00:43:40.483Z,7.40
2017-09-04T00:46:08.877Z,9.30
2017-09-04T00:48:37.234Z,9.03
2017-09-04T00:51:05.621Z,7.93
2017-09-04T00:53:33.973Z,10.20
2017-09-04T00:56:02.371Z,12.00
2017-09-04T00:58:30.745Z,6.57
2017-09-04T01:00:59.255Z,6.70
2017-09-04T01:03:27.724Z,7.70
2017-09-04T01:05:56.117Z,5.47
2017-09-04T01:08:24.490Z,7.00
2017-09-04T01:10:52.960Z,5.90
2017-09-04T01:13:21.332Z,9.13
2017-09-04T01:15:49.820Z,7.47
2017-09-04T01:18:18.196Z,7.53
2017-09-04T01:20:46.679Z,8.00
2017-09-04T01:23:15.057Z,6.37
2017-09-04T01:25:43.440Z,9.30
2017-09-04T01:28:11.812Z,7.50
2017-09-04T01:30:40.196Z,6.90
2017-09-04T01:33:08.671Z,6.00
2017-09-04T01:35:37.067Z,6.67
2017-09-04T01:38:05.427Z,8.77
2017-09-04T01:40:33.821Z,6.50
2017-09-04T01:43:02.288Z,9.47
2017-09-04T01:45:30.683Z,7.87
2017-09-04T01:47:59.144Z,6.37
2017-09-04T01:50:27.625Z,9.00
2017-09-04T01:52:56.004Z,7.80
2017-09-04T01:55:24.403Z,7.53
2017-09-04T01:57:52.865Z,11.60
2017-09-04T02:00:21.265Z,9.07
2017-09-04T02:02:49.644Z,9.70
2017-09-04T02:05:18.103Z,10.20
2017-09-04T02:07:46.580Z,8.10
2017-09-04T02:10:15.911Z,11.80
2017-09-04T02:12:44.284Z,10.23
2017-09-04T02:15:12.681Z,10.93
2017-09-04T02:17:41.068Z,17.57
2017-09-04T02:20:09.503Z,10.37
2017-09-04T02:22:37.979Z,12.43
2017-09-04T02:25:06.464Z,13.37
2017-09-04T02:27:34.940Z,14.93
2017-09-04T02:30:03.343Z,12.30
2017-09-04T02:32:31.724Z,13.83
2017-09-04T02:35:00.129Z,10.43
2017-09-04T02:37:29.429Z,13.67
2017-09-04T02:39:57.846Z,13.00
2017-09-04T02:42:26.242Z,13.23
2017-09-04T02:44:54.653Z,10.77
2017-09-04T02:47:23.095Z,11.30
2017-09-04T02:49:51.492Z,15.23
2017-09-04T02:52:19.957Z,15.80
2017-09-04T02:54:48.352Z,12.90
2017-09-04T02:57:16.732Z,16.67
2017-09-04T02:59:45.128Z,15.07
2017-09-04T03:02:13.568Z,14.87
2017-09-04T03:04:41.960Z,14.10
2017-09-04T03:07:10.336Z,16.00
2017-09-04T03:09:38.800Z,14.50
2017-09-04T03:12:07.208Z,14.47
2017-09-04T03:14:35.659Z,16.23
2017-09-04T03:17:04.053Z,13.97
2017-09-04T03:19:32.516Z,16.20
2017-09-04T03:22:00.918Z,17.73
2017-09-04T03:24:29.292Z,18.53
2017-09-04T03:26:57.644Z,12.70
2017-09-04T03:29:26.061Z,15.63
2017-09-04T03:31:54.621Z,16.73
2017-09-04T03:34:23.000Z,14.93
2017-09-04T03:36:51.468Z,16.03
2017-09-04T03:39:20.324Z,20.23
2017-09-04T03:41:48.727Z,13.90
2017-09-04T03:44:17.148Z,19.50
2017-09-04T03:46:45.610Z,21.93
2017-09-04T03:49:14.027Z,17.33
2017-09-04T03:51:42.403Z,15.83
2017-09-04T03:54:10.820Z,15.03
2017-09-04T03:56:39.192Z,17.53
2017-09-04T03:59:07.608Z,16.90
2017-09-04T04:01:35.984Z,16.17
2017-09-04T04:04:04.460Z,18.27
2017-09-04T04:06:32.864Z,14.97
2017-09-04T04:09:02.293Z,13.10
2017-09-04T04:11:30.672Z,18.30
2017-09-04T04:13:59.244Z,15.77
2017-09-04T04:16:27.684Z,13.53
2017-09-04T04:18:56.064Z,17.00
2017-09-04T04:21:24.492Z,17.50
2017-09-04T04:23:53.025Z,14.40
2017-09-04T04:26:21.505Z,11.80
2017-09-04T04:28:49.877Z,14.60
2017-09-04T04:31:18.654Z,12.13
2017-09-04T04:33:47.028Z,14.00
2017-09-04T04:36:15.533Z,12.47
2017-09-04T04:38:43.945Z,14.20
2017-09-04T04:41:12.324Z,12.07
2017-09-04T04:43:40.765Z,11.83
2017-09-04T04:46:09.136Z,15.97
2017-09-04T04:48:37.544Z,15.27
2017-09-04T04:51:06.420Z,15.43
2017-09-04T04:53:34.792Z,11.80
2017-09-04T04:56:03.267Z,13.80
2017-09-04T04:58:31.652Z,11.70
2017-09-04T05:01:00.028Z,14.50
2017-09-04T05:03:28.419Z,20.20
2017-09-04T05:05:56.796Z,10.00
2017-09-04T05:08:25.264Z,13.10
2017-09-04T05:10:53.643Z,12.33
2017-09-04T05:13:22.128Z,13.17
2017-09-04T05:15:50.505Z,14.80
2017-09-04T05:18:18.897Z,12.27
2017-09-04T05:20:47.363Z,12.87
2017-09-04T05:23:16.804Z,9.20
2017-09-04T05:25:45.171Z,23.40
2017-09-04T05:28:13.621Z,18.63
2017-09-04T05:30:42.117Z,14.73
2017-09-04T05:33:10.492Z,13.50
2017-09-04T05:35:38.972Z,10.80
2017-09-04T05:38:07.345Z,12.50
2017-09-04T05:40:35.723Z,13.43
2017-09-04T05:43:04.094Z,11.47
2017-09-04T05:45:32.586Z,11.27
2017-09-04T05:48:01.055Z,11.30
2017-09-04T05:50:29.417Z,16.00
2017-09-04T05:52:57.805Z,13.53
2017-09-04T05:55:26.217Z,10.67
2017-09-04T05:57:54.678Z,14.33
2017-09-04T06:00:23.157Z,12.57
2017-09-04T06:02:51.533Z,8.70
2017-09-04T06:05:20.017Z,12.83
2017-09-04T06:07:48.484Z,9.80
2017-09-04T06:10:16.965Z,14.70
2017-09-04T06:12:45.357Z,14.97
2017-09-04T06:15:13.740Z,15.40
2017-09-04T06:17:42.108Z,10.80
2017-09-04T06:20:10.495Z,8.20
2017-09-04T06:22:38.872Z,12.40
2017-09-04T06:25:07.265Z,11.90
2017-09-04T06:27:35.640Z,11.80
2017-09-04T06:30:04.108Z,11.77
2017-09-04T06:32:32.590Z,14.40
2017-09-04T06:35:01.902Z,9.40
2017-09-04T06:37:30.293Z,7.37
2017-09-04T06:39:58.701Z,7.17
2017-09-04T06:42:27.073Z,5.97
2017-09-04T06:44:55.460Z,8.80
2017-09-04T06:47:23.831Z,10.17
2017-09-04T06:49:52.222Z,6.53
2017-09-04T06:52:20.640Z,11.53
2017-09-04T06:54:49.031Z,15.47
2017-09-04T06:57:17.491Z,8.83
2017-09-04T06:59:45.982Z,11.90
2017-09-04T07:02:14.437Z,7.73
2017-09-04T07:04:42.828Z,4.87
2017-09-04T07:07:11.199Z,6.10
2017-09-04T07:09:39.807Z,8.10
2017-09-04T07:12:10.728Z,7.00
2017-09-04T07:14:39.156Z,6.60
2017-09-04T07:17:08.461Z,8.60
2017-09-04T07:19:36.889Z,4.93
2017-09-04T07:22:05.355Z,7.00
2017-09-04T07:24:33.726Z,3.83
2017-09-04T07:27:02.079Z,4.00
2017-09-04T07:29:30.508Z,6.40
2017-09-04T07:31:58.866Z,6.33
2017-09-04T07:34:27.220Z,3.83
2017-09-04T07:36:55.636Z,5.47
2017-09-04T07:39:24.027Z,4.20
2017-09-04T07:41:52.412Z,6.47
2017-09-04T07:44:20.883Z,2.93
2017-09-04T07:46:49.356Z,3.03
2017-09-04T07:49:19.784Z,5.93
2017-09-04T07:51:48.263Z,5.70
2017-09-04T07:54:16.639Z,3.47
2017-09-04T07:56:45.132Z,4.10
2017-09-04T07:59:13.738Z,3.90
2017-09-04T08:01:43.042Z,4.90
2017-09-04T08:04:11.430Z,7.13
2017-09-04T08:06:39.869Z,5.87
2017-09-04T08:09:08.349Z,2.93
2017-09-04T08:11:36.824Z,3.93
2017-09-04T08:14:05.185Z,4.33
2017-09-04T08:16:33.552Z,4.43
2017-09-04T08:19:01.943Z,4.20
2017-09-04T08:21:30.335Z,4.00
2017-09-04T08:23:58.721Z,3.53
2017-09-04T08:26:27.101Z,3.80
2017-09-04T08:28:55.491Z,3.27
2017-09-04T08:31:23.880Z,2.47
2017-09-04T08:33:52.336Z,5.33
2017-09-04T08:36:20.728Z,5.50
2017-09-04T08:38:49.128Z,7.33
2017-09-04T08:41:17.500Z,4.57
2017-09-04T08:43:45.898Z,3.63
2017-09-04T08:46:14.273Z,6.37
2017-09-04T08:48:42.829Z,3.70
2017-09-04T08:51:11.324Z,4.60
2017-09-04T08:53:39.740Z,7.33
2017-09-04T08:56:08.144Z,3.73
2017-09-04T08:58:36.520Z,6.73
2017-09-04T09:01:05.869Z,5.90
2017-09-04T09:03:34.312Z,4.97
2017-09-04T09:06:02.793Z,5.83
2017-09-04T09:08:31.260Z,2.67
2017-09-04T09:10:59.648Z,2.97
2017-09-04T09:13:28.025Z,4.33
2017-09-04T09:15:56.421Z,2.30
2017-09-04T09:18:24.794Z,3.50
2017-09-04T09:20:53.211Z,3.57
2017-09-04T09:23:21.577Z,4.67
2017-09-04T09:25:49.950Z,3.80
2017-09-04T09:28:18.434Z,3.27
2017-09-04T09:30:46.806Z,3.53
2017-09-04T09:33:16.281Z,4.40
2017-09-04T09:35:44.665Z,5.17
2017-09-04T09:38:13.057Z,1.57
2017-09-04T09:40:41.609Z,3.17
2017-09-04T09:43:11.011Z,1.90
2017-09-04T09:45:39.388Z,2.17
2017-09-04T09:48:07.781Z,1.43
2017-09-04T09:50:36.157Z,4.63
2017-09-04T09:53:04.592Z,1.37
2017-09-04T09:55:32.964Z,1.90
2017-09-04T09:58:01.352Z,2.20
2017-09-04T10:00:29.719Z,3.17
2017-09-04T10:02:58.153Z,2.47
2017-09-04T10:05:26.530Z,4.37
2017-09-04T10:07:55.968Z,2.40
2017-09-04T10:10:24.414Z,1.30
2017-09-04T10:12:53.752Z,1.90
2017-09-04T10:15:22.297Z,3.40
2017-09-04T10:17:50.665Z,5.90
2017-09-04T10:20:19.996Z,3.03
2017-09-04T10:22:50.405Z,3.47
2017-09-04T10:25:18.888Z,3.17
2017-09-04T10:27:47.250Z,1.80
2017-09-04T10:30:15.734Z,4.23
2017-09-04T10:32:45.038Z,2.87
2017-09-04T10:35:13.710Z,2.20
2017-09-04T10:37:42.282Z,2.70
2017-09-04T10:40:10.789Z,1.70
2017-09-04T10:42:39.383Z,2.97
2017-09-04T10:45:07.772Z,5.23
2017-09-04T10:47:36.135Z,1.30
2017-09-04T10:50:04.544Z,3.07
2017-09-04T10:52:32.917Z,1.47
2017-09-04T10:55:01.407Z,1.47
2017-09-04T10:57:29.846Z,4.90
2017-09-04T10:59:58.404Z,0.90
2017-09-04T11:02:31.225Z,4.10
2017-09-04T11:04:59.604Z,0.97
2017-09-04T11:07:28.015Z,2.07
2017-09-04T11:09:56.450Z,3.30
2017-09-04T11:12:25.967Z,2.27
2017-09-04T11:14:55.465Z,2.57
2017-09-04T11:17:25.963Z,3.57
2017-09-04T11:19:54.452Z,3.33
2017-09-04T11:22:22.977Z,1.90
2017-09-04T11:24:51.410Z,2.77
2017-09-04T11:27:20.853Z,1.80
2017-09-04T11:29:50.234Z,1.90
2017-09-04T11:32:18.685Z,4.10
2017-09-04T11:34:49.140Z,1.67
2017-09-04T11:37:17.784Z,3.10
2017-09-04T11:39:46.165Z,2.23
2017-09-04T11:42:14.691Z,1.60
2017-09-04T11:44:44.195Z,1.20
2017-09-04T11:47:12.773Z,2.17
2017-09-04T11:49:43.101Z,2.93
2017-09-04T11:52:12.504Z,1.43
2017-09-04T11:54:48.868Z,4.03
2017-09-04T11:57:17.343Z,2.37
2017-09-04T11:59:46.963Z,1.80
2017-09-04T12:02:15.432Z,3.73
2017-09-04T12:04:43.812Z,2.07
2017-09-04T12:07:12.280Z,1.90
2017-09-04T12:09:41.836Z,2.70
2017-09-04T12:12:10.382Z,2.93
2017-09-04T12:14:38.853Z,3.83
2017-09-04T12:17:08.129Z,1.40
2017-09-04T12:19:36.541Z,2.97
2017-09-04T12:22:05.023Z,2.50
2017-09-04T12:24:33.587Z,2.83
2017-09-04T12:27:01.973Z,2.33
2017-09-04T12:29:30.627Z,2.27
2017-09-04T12:31:59.008Z,1.97
2017-09-04T12:34:27.610Z,2.70
2017-09-04T12:36:55.996Z,2.43
2017-09-04T12:39:24.484Z,1.40
2017-09-04T12:41:52.853Z,1.50
2017-09-04T12:44:22.219Z,1.63
2017-09-04T12:46:50.858Z,2.23
2017-09-04T12:49:19.417Z,3.67
2017-09-04T12:51:47.773Z,1.67
2017-09-04T12:54:16.145Z,2.07
2017-09-04T12:56:44.536Z,3.40
2017-09-04T12:59:13.863Z,0.77
2017-09-04T13:01:42.331Z,1.43
2017-09-04T13:04:10.697Z,0.93
2017-09-04T13:06:40.416Z,1.63
2017-09-04T13:09:08.937Z,1.70
2017-09-04T13:11:38.635Z,1.47
2017-09-04T13:14:07.032Z,1.30
2017-09-04T13:16:39.071Z,3.43
2017-09-04T13:19:07.436Z,2.60
2017-09-04T13:21:37.784Z,1.90
2017-09-04T13:24:07.169Z,1.00
2017-09-04T13:26:35.588Z,1.57
2017-09-04T13:29:07.409Z,2.77
2017-09-04T13:31:38.913Z,3.53
2017-09-04T13:34:07.334Z,2.20
2017-09-04T13:36:35.820Z,1.83
2017-09-04T13:39:04.192Z,1.87
2017-09-04T13:41:32.677Z,1.23
2017-09-04T13:44:01.166Z,1.20
2017-09-04T13:46:30.576Z,1.67
2017-09-04T13:48:59.001Z,2.53
2017-09-04T13:51:27.394Z,2.20
2017-09-04T13:53:56.586Z,3.73
2017-09-04T13:56:24.987Z,1.90
2017-09-04T13:58:53.377Z,1.50
2017-09-04T14:01:23.702Z,0.93
2017-09-04T14:03:53.195Z,1.20
2017-09-04T14:09:01.518Z,1.43
2017-09-04T14:11:29.990Z,2.17
2017-09-04T14:13:58.433Z,1.43
2017-09-04T14:16:26.811Z,4.47
2017-09-04T14:18:55.230Z,1.83
2017-09-04T14:21:23.649Z,1.13
2017-09-04T14:23:52.195Z,3.70
2017-09-04T14:26:20.570Z,1.43
2017-09-04T14:28:48.953Z,1.07
2017-09-04T14:31:17.334Z,2.00
2017-09-04T14:33:45.705Z,1.07
2017-09-04T14:36:14.049Z,2.87
2017-09-04T14:38:43.490Z,3.40
2017-09-04T14:41:16.290Z,1.07
2017-09-04T14:43:44.750Z,1.37
2017-09-04T14:46:17.593Z,3.10
2017-09-04T14:48:48.198Z,2.40
2017-09-04T14:51:16.546Z,1.63
2017-09-04T14:53:45.922Z,3.57
2017-09-04T14:56:14.300Z,4.20
2017-09-04T14:58:42.805Z,2.33
2017-09-04T15:01:13.215Z,2.10
2017-09-04T15:03:41.609Z,1.23
2017-09-04T15:06:09.979Z,5.23
2017-09-04T15:08:38.333Z,5.00
2017-09-04T15:11:06.706Z,3.50
2017-09-04T15:13:35.122Z,1.50
2017-09-04T15:16:03.577Z,1.33
2017-09-04T15:18:32.372Z,2.77
2017-09-04T15:21:01.874Z,2.00
2017-09-04T15:23:30.583Z,0.80
2017-09-04T15:25:59.126Z,1.47
2017-09-04T15:28:27.479Z,2.97
2017-09-04T15:30:59.887Z,2.10
2017-09-04T15:33:32.438Z,0.80
2017-09-04T15:36:01.641Z,2.97
2017-09-04T15:38:36.183Z,1.57
2017-09-04T15:41:05.377Z,1.10
2017-09-04T15:43:33.845Z,1.93
2017-09-04T15:46:02.347Z,1.30
2017-09-04T15:48:30.704Z,1.20
2017-09-04T15:51:03.431Z,1.53
2017-09-04T15:53:31.794Z,2.40
2017-09-04T15:56:06.686Z,3.67
2017-09-04T15:58:36.028Z,2.30
2017-09-04T16:01:07.678Z,1.37
2017-09-04T16:03:36.034Z,1.17
2017-09-04T16:06:06.670Z,3.80
2017-09-04T16:08:39.858Z,1.43
2017-09-04T16:11:13.063Z,1.23
2017-09-04T16:13:44.210Z,1.20
2017-09-04T16:16:12.626Z,2.43
2017-09-04T16:18:48.390Z,2.57
2017-09-04T16:21:21.050Z,2.87
2017-09-04T16:23:59.382Z,3.03
2017-09-04T16:26:29.729Z,1.90
2017-09-04T16:29:00.081Z,1.60
2017-09-04T16:31:28.442Z,1.83
2017-09-04T16:34:00.022Z,3.07
2017-09-04T16:36:33.439Z,1.47
2017-09-04T16:39:08.506Z,2.30
2017-09-04T16:41:39.110Z,4.60
2017-09-04T16:44:07.552Z,1.67
2017-09-04T16:46:37.763Z,3.13
2017-09-04T16:49:08.392Z,1.27
2017-09-04T16:51:42.079Z,4.43
2017-09-04T16:54:12.727Z,1.23
2017-09-04T16:56:41.087Z,2.10
2017-09-04T16:59:10.530Z,1.90
2017-09-04T17:01:39.074Z,1.30
2017-09-04T17:04:11.024Z,2.30
2017-09-04T17:06:40.380Z,2.83
2017-09-04T17:09:08.782Z,1.60
2017-09-04T17:11:38.043Z,2.40
2017-09-04T17:14:06.421Z,6.23
2017-09-04T17:16:34.796Z,2.53
2017-09-04T17:19:04.079Z,2.23
2017-09-04T17:21:38.929Z,2.30
2017-09-04T17:24:11.444Z,2.53
2017-09-04T17:26:42.974Z,3.70
2017-09-04T17:29:14.910Z,3.60
2017-09-04T17:31:45.526Z,11.67
2017-09-04T17:34:13.900Z,2.00
2017-09-04T17:36:42.319Z,3.83
2017-09-04T17:39:12.572Z,7.60
2017-09-04T17:41:53.403Z,6.20
2017-09-04T17:44:25.346Z,7.20
2017-09-04T17:46:53.790Z,3.17
2017-09-04T17:49:23.065Z,5.83
2017-09-04T17:51:51.418Z,4.47
2017-09-04T17:54:30.967Z,2.07
2017-09-04T17:56:59.369Z,1.83
2017-09-04T17:59:27.734Z,2.97
2017-09-04T18:01:56.095Z,3.93
2017-09-04T18:04:24.468Z,3.57
2017-09-04T18:06:54.669Z,2.50
2017-09-04T18:09:24.047Z,2.00
2017-09-04T18:11:52.667Z,4.60
2017-09-04T18:14:25.523Z,3.10
2017-09-04T18:16:54.822Z,1.93
2017-09-04T18:19:28.357Z,2.67
2017-09-04T18:21:57.643Z,2.63
2017-09-04T18:24:26.946Z,2.70
2017-09-04T18:26:55.299Z,3.43
2017-09-04T18:29:32.270Z,3.27
2017-09-04T18:32:01.546Z,6.27
2017-09-04T18:34:29.934Z,4.10
2017-09-04T18:36:59.282Z,7.83
2017-09-04T18:39:27.687Z,2.70
2017-09-04T18:41:58.001Z,9.67
2017-09-04T18:44:26.390Z,2.67
2017-09-04T18:46:55.141Z,2.83
2017-09-04T18:49:25.470Z,4.63
2017-09-04T19:06:09.080Z,29.17
2017-09-04T19:12:36.118Z,7.90
